sensor_id;sensor_type;location;lat;lon;timestamp;pressure;altitude;pressure_sealevel;temperature;humidity
28428;BME280;15662;49.128;8.520;2023-06-14T00:00:14;99889.88;;;23.41;31.16
28428;BME280;15662;49.128;8.520;2023-06-14T00:02:43;99885.13;;;23.33;31.24
28428;BME280;15662;49.128;8.520;2023-06-14T00:05:11;99879.09;;;23.30;31.16
28428;BME280;15662;49.128;8.520;2023-06-14T00:07:42;99889.22;;;23.28;31.22
28428;BME280;15662;49.128;8.520;2023-06-14T00:10:11;99884.94;;;23.25;31.06
28428;BME280;15662;49.128;8.520;2023-06-14T00:12:40;99885.19;;;23.22;31.34
28428;BME280;15662;49.128;8.520;2023-06-14T00:15:08;99882.75;;;23.19;31.01
28428;BME280;15662;49.128;8.520;2023-06-14T00:17:39;99879.56;;;23.14;31.17
28428;BME280;15662;49.128;8.520;2023-06-14T00:20:08;99881.44;;;23.13;31.02
28428;BME280;15662;49.128;8.520;2023-06-14T00:22:36;99873.72;;;23.09;31.08
28428;BME280;15662;49.128;8.520;2023-06-14T00:25:05;99875.41;;;23.10;31.11
28428;BME280;15662;49.128;8.520;2023-06-14T00:27:54;99879.25;;;23.07;31.04
28428;BME280;15662;49.128;8.520;2023-06-14T00:30:23;99881.09;;;23.07;30.94
28428;BME280;15662;49.128;8.520;2023-06-14T00:32:51;99878.66;;;23.04;30.91
28428;BME280;15662;49.128;8.520;2023-06-14T00:35:19;99874.50;;;23.00;30.73
28428;BME280;15662;49.128;8.520;2023-06-14T00:37:47;99870.94;;;22.99;30.94
28428;BME280;15662;49.128;8.520;2023-06-14T00:40:15;99872.06;;;22.97;30.74
28428;BME280;15662;49.128;8.520;2023-06-14T00:42:45;99872.31;;;22.94;30.76
28428;BME280;15662;49.128;8.520;2023-06-14T00:45:13;99873.78;;;22.98;30.80
28428;BME280;15662;49.128;8.520;2023-06-14T00:47:42;99871.94;;;22.98;30.72
28428;BME280;15662;49.128;8.520;2023-06-14T00:50:11;99869.38;;;22.97;30.81
28428;BME280;15662;49.128;8.520;2023-06-14T00:52:41;99867.78;;;22.94;30.62
28428;BME280;15662;49.128;8.520;2023-06-14T00:55:09;99874.78;;;22.97;30.66
28428;BME280;15662;49.128;8.520;2023-06-14T00:57:37;99865.91;;;22.95;30.63
28428;BME280;15662;49.128;8.520;2023-06-14T01:00:07;99869.47;;;22.95;30.55
28428;BME280;15662;49.128;8.520;2023-06-14T01:02:38;99870.94;;;22.99;30.59
28428;BME280;15662;49.128;8.520;2023-06-14T01:05:09;99879.31;;;22.96;30.58
28428;BME280;15662;49.128;8.520;2023-06-14T01:08:19;99879.44;;;22.95;30.55
28428;BME280;15662;49.128;8.520;2023-06-14T01:13:40;99879.81;;;22.90;30.57
28428;BME280;15662;49.128;8.520;2023-06-14T01:16:10;99886.47;;;22.86;30.78
28428;BME280;15662;49.128;8.520;2023-06-14T01:18:39;99881.91;;;22.86;30.87
28428;BME280;15662;49.128;8.520;2023-06-14T01:21:24;99883.16;;;22.82;30.69
28428;BME280;15662;49.128;8.520;2023-06-14T01:23:52;99888.81;;;22.79;30.87
28428;BME280;15662;49.128;8.520;2023-06-14T01:26:22;99884.25;;;22.80;31.13
28428;BME280;15662;49.128;8.520;2023-06-14T01:28:52;99887.34;;;22.75;30.86
28428;BME280;15662;49.128;8.520;2023-06-14T01:31:26;99895.34;;;22.77;30.80
28428;BME280;15662;49.128;8.520;2023-06-14T01:33:55;99896.19;;;22.77;30.95
28428;BME280;15662;49.128;8.520;2023-06-14T01:36:26;99895.44;;;22.75;30.92
28428;BME280;15662;49.128;8.520;2023-06-14T01:38:59;99890.56;;;22.69;31.08
28428;BME280;15662;49.128;8.520;2023-06-14T01:41:28;99883.59;;;22.66;30.96
28428;BME280;15662;49.128;8.520;2023-06-14T01:43:58;99881.84;;;22.65;30.84
28428;BME280;15662;49.128;8.520;2023-06-14T01:46:26;99883.59;;;22.66;30.95
28428;BME280;15662;49.128;8.520;2023-06-14T01:48:54;99888.16;;;22.66;30.90
28428;BME280;15662;49.128;8.520;2023-06-14T01:51:22;99889.72;;;22.69;30.99
28428;BME280;15662;49.128;8.520;2023-06-14T01:53:50;99880.03;;;22.66;30.94
28428;BME280;15662;49.128;8.520;2023-06-14T01:56:18;99881.00;;;22.65;30.98
28428;BME280;15662;49.128;8.520;2023-06-14T01:58:48;99880.44;;;22.61;30.93
28428;BME280;15662;49.128;8.520;2023-06-14T02:01:18;99883.84;;;22.63;30.91
28428;BME280;15662;49.128;8.520;2023-06-14T02:03:47;99886.69;;;22.62;31.06
28428;BME280;15662;49.128;8.520;2023-06-14T02:06:16;99882.38;;;22.59;31.16
28428;BME280;15662;49.128;8.520;2023-06-14T02:08:44;99887.06;;;22.57;31.13
28428;BME280;15662;49.128;8.520;2023-06-14T02:11:12;99887.91;;;22.58;31.18
28428;BME280;15662;49.128;8.520;2023-06-14T02:13:40;99893.69;;;22.53;31.15
28428;BME280;15662;49.128;8.520;2023-06-14T02:16:08;99890.38;;;22.50;31.13
28428;BME280;15662;49.128;8.520;2023-06-14T02:18:36;99891.25;;;22.50;31.23
28428;BME280;15662;49.128;8.520;2023-06-14T02:21:04;99901.31;;;22.48;31.39
28428;BME280;15662;49.128;8.520;2023-06-14T02:23:32;99904.88;;;22.49;31.34
28428;BME280;15662;49.128;8.520;2023-06-14T02:26:02;99898.16;;;22.43;31.83
28428;BME280;15662;49.128;8.520;2023-06-14T02:28:30;99911.91;;;22.29;32.40
28428;BME280;15662;49.128;8.520;2023-06-14T02:31:04;99914.66;;;22.18;32.22
28428;BME280;15662;49.128;8.520;2023-06-14T02:33:33;99914.50;;;22.08;32.54
28428;BME280;15662;49.128;8.520;2023-06-14T02:36:02;99924.69;;;21.93;32.92
28428;BME280;15662;49.128;8.520;2023-06-14T02:38:30;99931.91;;;21.81;32.95
28428;BME280;15662;49.128;8.520;2023-06-14T02:40:58;99925.06;;;21.77;33.18
28428;BME280;15662;49.128;8.520;2023-06-14T02:43:29;99928.97;;;21.73;33.13
28428;BME280;15662;49.128;8.520;2023-06-14T02:45:58;99932.75;;;21.71;33.40
28428;BME280;15662;49.128;8.520;2023-06-14T02:48:27;99937.53;;;21.67;33.45
28428;BME280;15662;49.128;8.520;2023-06-14T02:50:55;99928.44;;;21.57;33.54
28428;BME280;15662;49.128;8.520;2023-06-14T02:53:24;99939.47;;;21.54;33.87
28428;BME280;15662;49.128;8.520;2023-06-14T02:55:51;99934.66;;;21.46;33.95
28428;BME280;15662;49.128;8.520;2023-06-14T02:58:20;99941.53;;;21.39;34.33
28428;BME280;15662;49.128;8.520;2023-06-14T03:00:49;99935.88;;;21.31;34.46
28428;BME280;15662;49.128;8.520;2023-06-14T03:03:17;99942.78;;;21.22;34.41
28428;BME280;15662;49.128;8.520;2023-06-14T03:05:52;99944.38;;;21.13;34.59
28428;BME280;15662;49.128;8.520;2023-06-14T03:08:23;99946.78;;;21.05;34.60
28428;BME280;15662;49.128;8.520;2023-06-14T03:10:55;99938.06;;;21.02;34.77
28428;BME280;15662;49.128;8.520;2023-06-14T03:13:25;99930.44;;;20.96;34.88
28428;BME280;15662;49.128;8.520;2023-06-14T03:15:54;99954.56;;;20.97;34.96
28428;BME280;15662;49.128;8.520;2023-06-14T03:18:24;99952.47;;;20.90;35.19
28428;BME280;15662;49.128;8.520;2023-06-14T03:20:56;99945.06;;;20.80;35.28
28428;BME280;15662;49.128;8.520;2023-06-14T03:23:27;99949.69;;;20.78;35.13
28428;BME280;15662;49.128;8.520;2023-06-14T03:26:03;99942.59;;;20.77;35.36
28428;BME280;15662;49.128;8.520;2023-06-14T03:28:31;99948.00;;;20.77;35.52
28428;BME280;15662;49.128;8.520;2023-06-14T03:31:00;99950.34;;;20.82;35.61
28428;BME280;15662;49.128;8.520;2023-06-14T03:33:32;99958.28;;;20.83;35.64
28428;BME280;15662;49.128;8.520;2023-06-14T03:36:00;99958.66;;;20.79;35.78
28428;BME280;15662;49.128;8.520;2023-06-14T03:38:29;99966.44;;;20.71;36.21
28428;BME280;15662;49.128;8.520;2023-06-14T03:40:57;99965.28;;;20.62;36.20
28428;BME280;15662;49.128;8.520;2023-06-14T03:43:25;99966.16;;;20.63;36.09
28428;BME280;15662;49.128;8.520;2023-06-14T03:45:53;99967.84;;;20.64;36.17
28428;BME280;15662;49.128;8.520;2023-06-14T03:48:23;99974.75;;;20.68;36.22
28428;BME280;15662;49.128;8.520;2023-06-14T03:50:51;99975.50;;;20.70;36.42
28428;BME280;15662;49.128;8.520;2023-06-14T03:53:21;99979.44;;;20.77;36.22
28428;BME280;15662;49.128;8.520;2023-06-14T03:55:52;99984.72;;;20.78;36.68
28428;BME280;15662;49.128;8.520;2023-06-14T03:58:41;99987.75;;;20.74;36.11
28428;BME280;15662;49.128;8.520;2023-06-14T04:01:09;99991.09;;;20.77;36.34
28428;BME280;15662;49.128;8.520;2023-06-14T04:03:37;99987.41;;;20.78;36.29
28428;BME280;15662;49.128;8.520;2023-06-14T04:06:06;99995.50;;;20.78;36.16
28428;BME280;15662;49.128;8.520;2023-06-14T04:08:34;100000.88;;;20.78;36.28
28428;BME280;15662;49.128;8.520;2023-06-14T04:11:07;100003.34;;;20.81;36.35
28428;BME280;15662;49.128;8.520;2023-06-14T04:13:35;100005.72;;;20.86;36.21
28428;BME280;15662;49.128;8.520;2023-06-14T04:16:04;100007.53;;;20.85;36.57
28428;BME280;15662;49.128;8.520;2023-06-14T04:18:35;100004.47;;;20.79;36.58
28428;BME280;15662;49.128;8.520;2023-06-14T04:21:03;100004.47;;;20.79;36.68
28428;BME280;15662;49.128;8.520;2023-06-14T04:23:32;100014.25;;;20.80;37.08
28428;BME280;15662;49.128;8.520;2023-06-14T04:26:01;100008.53;;;20.84;36.63
28428;BME280;15662;49.128;8.520;2023-06-14T04:28:29;100017.13;;;20.90;36.49
28428;BME280;15662;49.128;8.520;2023-06-14T04:30:59;100015.94;;;20.94;36.68
28428;BME280;15662;49.128;8.520;2023-06-14T04:33:31;100018.66;;;20.81;36.72
28428;BME280;15662;49.128;8.520;2023-06-14T04:35:59;100016.66;;;20.96;36.80
28428;BME280;15662;49.128;8.520;2023-06-14T04:38:27;100023.63;;;20.98;36.72
28428;BME280;15662;49.128;8.520;2023-06-14T04:40:57;100019.75;;;21.02;36.86
28428;BME280;15662;49.128;8.520;2023-06-14T04:43:29;100018.34;;;21.09;36.85
28428;BME280;15662;49.128;8.520;2023-06-14T04:45:57;100016.25;;;21.13;36.86
28428;BME280;15662;49.128;8.520;2023-06-14T04:48:27;100026.34;;;21.22;36.58
28428;BME280;15662;49.128;8.520;2023-06-14T04:50:56;100037.44;;;21.30;36.66
28428;BME280;15662;49.128;8.520;2023-06-14T04:53:24;100041.50;;;21.36;36.49
28428;BME280;15662;49.128;8.520;2023-06-14T04:55:56;100048.16;;;21.43;36.65
28428;BME280;15662;49.128;8.520;2023-06-14T04:58:24;100057.50;;;21.50;36.58
28428;BME280;15662;49.128;8.520;2023-06-14T05:00:52;100056.28;;;21.54;36.42
28428;BME280;15662;49.128;8.520;2023-06-14T05:03:22;100053.34;;;21.57;36.19
28428;BME280;15662;49.128;8.520;2023-06-14T05:05:52;100050.28;;;21.62;36.41
28428;BME280;15662;49.128;8.520;2023-06-14T05:08:21;100054.63;;;21.64;36.25
28428;BME280;15662;49.128;8.520;2023-06-14T05:10:51;100053.50;;;21.67;36.49
28428;BME280;15662;49.128;8.520;2023-06-14T05:13:22;100062.84;;;21.74;36.58
28428;BME280;15662;49.128;8.520;2023-06-14T05:15:50;100060.78;;;21.78;36.53
28428;BME280;15662;49.128;8.520;2023-06-14T05:18:18;100062.38;;;21.80;36.74
28428;BME280;15662;49.128;8.520;2023-06-14T05:20:46;100057.84;;;21.81;36.58
28428;BME280;15662;49.128;8.520;2023-06-14T05:23:14;100062.88;;;21.85;36.69
28428;BME280;15662;49.128;8.520;2023-06-14T05:25:44;100066.22;;;21.89;36.56
28428;BME280;15662;49.128;8.520;2023-06-14T05:28:13;100072.09;;;21.94;36.65
28428;BME280;15662;49.128;8.520;2023-06-14T05:30:41;100060.81;;;22.00;36.64
28428;BME280;15662;49.128;8.520;2023-06-14T05:33:09;100066.72;;;22.05;36.68
28428;BME280;15662;49.128;8.520;2023-06-14T05:35:37;100059.25;;;22.09;36.51
28428;BME280;15662;49.128;8.520;2023-06-14T05:38:05;100077.69;;;22.15;36.40
28428;BME280;15662;49.128;8.520;2023-06-14T05:40:35;100082.72;;;22.20;36.33
28428;BME280;15662;49.128;8.520;2023-06-14T05:43:03;100088.63;;;22.25;36.12
28428;BME280;15662;49.128;8.520;2023-06-14T05:45:30;100085.78;;;22.26;36.21
28428;BME280;15662;49.128;8.520;2023-06-14T05:47:58;100082.72;;;22.31;36.21
28428;BME280;15662;49.128;8.520;2023-06-14T05:50:26;100089.50;;;22.36;35.92
28428;BME280;15662;49.128;8.520;2023-06-14T05:52:54;100094.41;;;22.43;35.91
28428;BME280;15662;49.128;8.520;2023-06-14T05:55:22;100099.56;;;22.46;35.79
28428;BME280;15662;49.128;8.520;2023-06-14T05:57:50;100099.94;;;22.52;35.80
28428;BME280;15662;49.128;8.520;2023-06-14T06:00:18;100099.59;;;22.57;35.71
28428;BME280;15662;49.128;8.520;2023-06-14T06:02:52;100098.31;;;22.61;35.67
28428;BME280;15662;49.128;8.520;2023-06-14T06:05:21;100091.47;;;22.68;35.61
28428;BME280;15662;49.128;8.520;2023-06-14T06:07:49;100087.53;;;22.72;35.45
28428;BME280;15662;49.128;8.520;2023-06-14T06:10:18;100095.63;;;22.83;35.46
28428;BME280;15662;49.128;8.520;2023-06-14T06:12:46;100097.38;;;22.96;35.55
28428;BME280;15662;49.128;8.520;2023-06-14T06:15:15;100099.06;;;23.08;35.39
28428;BME280;15662;49.128;8.520;2023-06-14T06:17:45;100091.06;;;23.17;35.96
28428;BME280;15662;49.128;8.520;2023-06-14T06:20:24;100099.03;;;23.30;35.92
28428;BME280;15662;49.128;8.520;2023-06-14T06:22:59;100105.09;;;23.43;35.89
28428;BME280;15662;49.128;8.520;2023-06-14T06:25:28;100097.81;;;23.55;36.14
28428;BME280;15662;49.128;8.520;2023-06-14T06:27:58;100100.97;;;23.72;35.98
28428;BME280;15662;49.128;8.520;2023-06-14T06:30:25;100096.72;;;23.90;35.93
28428;BME280;15662;49.128;8.520;2023-06-14T06:32:54;100105.81;;;24.10;35.64
28428;BME280;15662;49.128;8.520;2023-06-14T06:35:23;100104.22;;;24.28;35.47
28428;BME280;15662;49.128;8.520;2023-06-14T06:37:52;100103.50;;;24.47;35.35
28428;BME280;15662;49.128;8.520;2023-06-14T06:40:20;100110.00;;;24.65;35.38
28428;BME280;15662;49.128;8.520;2023-06-14T06:42:48;100105.94;;;24.81;35.15
28428;BME280;15662;49.128;8.520;2023-06-14T06:45:19;100111.56;;;24.99;35.10
28428;BME280;15662;49.128;8.520;2023-06-14T06:47:47;100104.63;;;25.15;34.44
28428;BME280;15662;49.128;8.520;2023-06-14T06:50:14;100105.22;;;25.29;34.05
28428;BME280;15662;49.128;8.520;2023-06-14T06:52:43;100107.38;;;25.44;33.55
28428;BME280;15662;49.128;8.520;2023-06-14T06:55:13;100111.25;;;25.52;33.55
28428;BME280;15662;49.128;8.520;2023-06-14T06:57:42;100114.25;;;25.58;32.83
28428;BME280;15662;49.128;8.520;2023-06-14T07:00:10;100113.41;;;25.67;32.52
28428;BME280;15662;49.128;8.520;2023-06-14T07:02:38;100112.84;;;25.73;32.67
28428;BME280;15662;49.128;8.520;2023-06-14T07:05:06;100124.16;;;25.79;31.90
28428;BME280;15662;49.128;8.520;2023-06-14T07:07:35;100119.44;;;25.81;31.74
28428;BME280;15662;49.128;8.520;2023-06-14T07:10:04;100124.44;;;25.85;32.06
28428;BME280;15662;49.128;8.520;2023-06-14T07:12:33;100123.16;;;25.89;31.77
28428;BME280;15662;49.128;8.520;2023-06-14T07:15:04;100139.44;;;25.99;32.04
28428;BME280;15662;49.128;8.520;2023-06-14T07:17:32;100127.13;;;26.05;31.52
28428;BME280;15662;49.128;8.520;2023-06-14T07:20:07;100125.69;;;26.10;31.67
28428;BME280;15662;49.128;8.520;2023-06-14T07:22:42;100131.25;;;26.18;31.57
28428;BME280;15662;49.128;8.520;2023-06-14T07:25:12;100146.00;;;26.26;31.31
28428;BME280;15662;49.128;8.520;2023-06-14T07:27:45;100144.69;;;26.30;30.86
28428;BME280;15662;49.128;8.520;2023-06-14T07:30:13;100141.53;;;26.34;30.76
28428;BME280;15662;49.128;8.520;2023-06-14T07:32:41;100150.09;;;26.39;30.77
28428;BME280;15662;49.128;8.520;2023-06-14T07:35:10;100139.66;;;26.44;30.70
28428;BME280;15662;49.128;8.520;2023-06-14T07:37:37;100139.09;;;26.51;30.56
28428;BME280;15662;49.128;8.520;2023-06-14T07:40:08;100151.34;;;26.64;30.49
28428;BME280;15662;49.128;8.520;2023-06-14T07:42:38;100149.03;;;26.69;30.44
28428;BME280;15662;49.128;8.520;2023-06-14T07:45:07;100148.47;;;26.75;30.38
28428;BME280;15662;49.128;8.520;2023-06-14T07:47:35;100154.84;;;26.84;30.23
28428;BME280;15662;49.128;8.520;2023-06-14T07:50:04;100149.69;;;26.91;30.03
28428;BME280;15662;49.128;8.520;2023-06-14T07:52:34;100148.91;;;26.98;29.87
28428;BME280;15662;49.128;8.520;2023-06-14T07:55:02;100159.22;;;27.05;29.58
28428;BME280;15662;49.128;8.520;2023-06-14T07:57:30;100140.75;;;27.08;29.56
28428;BME280;15662;49.128;8.520;2023-06-14T07:59:58;100146.44;;;27.15;29.18
28428;BME280;15662;49.128;8.520;2023-06-14T08:02:27;100151.28;;;27.21;29.20
28428;BME280;15662;49.128;8.520;2023-06-14T08:04:55;100148.97;;;27.26;28.91
28428;BME280;15662;49.128;8.520;2023-06-14T08:07:23;100147.94;;;27.27;28.49
28428;BME280;15662;49.128;8.520;2023-06-14T08:09:53;100151.69;;;27.26;28.35
28428;BME280;15662;49.128;8.520;2023-06-14T08:12:21;100139.94;;;27.25;28.20
28428;BME280;15662;49.128;8.520;2023-06-14T08:14:50;100140.06;;;27.24;28.22
28428;BME280;15662;49.128;8.520;2023-06-14T08:17:39;100146.69;;;27.21;28.29
28428;BME280;15662;49.128;8.520;2023-06-14T08:20:08;100144.81;;;27.22;28.15
28428;BME280;15662;49.128;8.520;2023-06-14T08:22:36;100147.16;;;27.17;28.19
28428;BME280;15662;49.128;8.520;2023-06-14T08:25:04;100143.28;;;27.19;28.10
28428;BME280;15662;49.128;8.520;2023-06-14T08:27:32;100147.84;;;27.19;28.15
28428;BME280;15662;49.128;8.520;2023-06-14T08:30:00;100150.09;;;27.23;28.13
28428;BME280;15662;49.128;8.520;2023-06-14T08:32:33;100156.97;;;27.27;28.11
28428;BME280;15662;49.128;8.520;2023-06-14T08:35:03;100149.66;;;27.28;28.24
28428;BME280;15662;49.128;8.520;2023-06-14T08:37:45;100149.53;;;27.30;28.13
28428;BME280;15662;49.128;8.520;2023-06-14T08:40:22;100143.13;;;27.39;28.02
28428;BME280;15662;49.128;8.520;2023-06-14T08:42:54;100150.59;;;27.37;28.05
28428;BME280;15662;49.128;8.520;2023-06-14T08:45:24;100157.47;;;27.41;27.78
28428;BME280;15662;49.128;8.520;2023-06-14T08:47:55;100154.03;;;27.39;27.70
28428;BME280;15662;49.128;8.520;2023-06-14T08:50:28;100158.31;;;27.41;27.64
28428;BME280;15662;49.128;8.520;2023-06-14T08:53:02;100151.00;;;27.42;27.66
28428;BME280;15662;49.128;8.520;2023-06-14T08:55:32;100158.16;;;27.43;27.56
28428;BME280;15662;49.128;8.520;2023-06-14T08:58:12;100160.56;;;27.46;27.72
28428;BME280;15662;49.128;8.520;2023-06-14T09:00:42;100165.16;;;27.45;27.56
28428;BME280;15662;49.128;8.520;2023-06-14T09:03:11;100159.41;;;27.48;27.45
28428;BME280;15662;49.128;8.520;2023-06-14T09:05:41;100163.84;;;27.49;27.62
28428;BME280;15662;49.128;8.520;2023-06-14T09:08:10;100154.06;;;27.57;27.61
28428;BME280;15662;49.128;8.520;2023-06-14T09:10:40;100152.75;;;27.61;27.60
28428;BME280;15662;49.128;8.520;2023-06-14T09:13:08;100157.16;;;27.62;27.56
28428;BME280;15662;49.128;8.520;2023-06-14T09:15:36;100157.72;;;27.65;27.48
28428;BME280;15662;49.128;8.520;2023-06-14T09:18:06;100152.13;;;27.67;27.66
28428;BME280;15662;49.128;8.520;2023-06-14T09:20:35;100149.22;;;27.68;27.41
28428;BME280;15662;49.128;8.520;2023-06-14T09:23:04;100153.56;;;27.71;27.34
28428;BME280;15662;49.128;8.520;2023-06-14T09:25:45;100159.38;;;27.76;27.08
28428;BME280;15662;49.128;8.520;2023-06-14T09:28:15;100152.25;;;27.75;27.33
28428;BME280;15662;49.128;8.520;2023-06-14T09:30:44;100152.63;;;27.80;26.87
28428;BME280;15662;49.128;8.520;2023-06-14T09:33:17;100152.16;;;27.85;26.63
28428;BME280;15662;49.128;8.520;2023-06-14T09:35:46;100143.13;;;27.84;26.97
28428;BME280;15662;49.128;8.520;2023-06-14T09:38:18;100148.81;;;27.91;26.85
28428;BME280;15662;49.128;8.520;2023-06-14T09:40:46;100156.34;;;27.97;26.98
28428;BME280;15662;49.128;8.520;2023-06-14T09:43:16;100149.03;;;27.97;26.57
28428;BME280;15662;49.128;8.520;2023-06-14T09:45:44;100152.28;;;28.01;26.55
28428;BME280;15662;49.128;8.520;2023-06-14T09:48:16;100145.69;;;28.03;26.71
28428;BME280;15662;49.128;8.520;2023-06-14T09:50:46;100148.47;;;28.12;26.71
28428;BME280;15662;49.128;8.520;2023-06-14T09:53:21;100146.97;;;28.17;26.25
28428;BME280;15662;49.128;8.520;2023-06-14T09:55:55;100145.88;;;28.28;26.34
28428;BME280;15662;49.128;8.520;2023-06-14T09:58:26;100150.72;;;28.34;26.33
28428;BME280;15662;49.128;8.520;2023-06-14T10:00:56;100138.81;;;28.35;26.43
28428;BME280;15662;49.128;8.520;2023-06-14T10:03:28;100146.03;;;28.44;26.08
28428;BME280;15662;49.128;8.520;2023-06-14T10:06:10;100148.09;;;28.50;26.32
28428;BME280;15662;49.128;8.520;2023-06-14T10:08:40;100138.28;;;28.58;28.12
28428;BME280;15662;49.128;8.520;2023-06-14T10:11:08;100145.28;;;28.60;27.07
28428;BME280;15662;49.128;8.520;2023-06-14T10:13:36;100141.00;;;28.58;26.82
28428;BME280;15662;49.128;8.520;2023-06-14T10:16:20;100137.28;;;28.67;26.48
28428;BME280;15662;49.128;8.520;2023-06-14T10:19:17;100133.22;;;28.71;26.33
28428;BME280;15662;49.128;8.520;2023-06-14T10:22:02;100136.53;;;28.83;26.36
28428;BME280;15662;49.128;8.520;2023-06-14T10:24:43;100144.16;;;28.97;26.47
28428;BME280;15662;49.128;8.520;2023-06-14T10:27:14;100140.94;;;29.10;25.96
28428;BME280;15662;49.128;8.520;2023-06-14T10:32:22;100142.06;;;29.33;25.98
28428;BME280;15662;49.128;8.520;2023-06-14T10:35:16;100131.09;;;29.25;26.30
28428;BME280;15662;49.128;8.520;2023-06-14T10:37:46;100129.47;;;29.48;25.74
28428;BME280;15662;49.128;8.520;2023-06-14T10:40:33;100125.94;;;29.64;25.22
28428;BME280;15662;49.128;8.520;2023-06-14T10:43:22;100130.72;;;29.70;24.96
28428;BME280;15662;49.128;8.520;2023-06-14T10:46:16;100129.34;;;29.74;25.38
28428;BME280;15662;49.128;8.520;2023-06-14T10:48:45;100125.28;;;29.78;25.12
28428;BME280;15662;49.128;8.520;2023-06-14T10:51:17;100124.94;;;29.90;24.83
28428;BME280;15662;49.128;8.520;2023-06-14T10:53:50;100131.63;;;29.95;24.79
28428;BME280;15662;49.128;8.520;2023-06-14T10:56:29;100118.97;;;30.02;24.98
28428;BME280;15662;49.128;8.520;2023-06-14T10:58:58;100122.03;;;29.99;24.50
28428;BME280;15662;49.128;8.520;2023-06-14T11:01:45;100121.50;;;30.04;24.40
28428;BME280;15662;49.128;8.520;2023-06-14T11:04:21;100129.03;;;30.02;24.48
28428;BME280;15662;49.128;8.520;2023-06-14T11:06:50;100136.53;;;30.00;24.78
28428;BME280;15662;49.128;8.520;2023-06-14T11:12:28;100104.81;;;29.91;24.31
28428;BME280;15662;49.128;8.520;2023-06-14T11:14:59;100131.06;;;30.00;24.28
28428;BME280;15662;49.128;8.520;2023-06-14T11:17:29;100127.50;;;29.99;24.34
28428;BME280;15662;49.128;8.520;2023-06-14T11:20:11;100122.41;;;30.13;24.38
28428;BME280;15662;49.128;8.520;2023-06-14T11:22:49;100120.53;;;30.13;24.40
28428;BME280;15662;49.128;8.520;2023-06-14T11:25:17;100117.28;;;30.18;24.62
28428;BME280;15662;49.128;8.520;2023-06-14T11:27:49;100116.94;;;30.21;24.07
28428;BME280;15662;49.128;8.520;2023-06-14T11:30:18;100115.56;;;30.25;24.37
28428;BME280;15662;49.128;8.520;2023-06-14T11:32:50;100123.59;;;30.35;23.90
28428;BME280;15662;49.128;8.520;2023-06-14T11:35:23;100131.44;;;30.38;24.31
28428;BME280;15662;49.128;8.520;2023-06-14T11:37:55;100126.81;;;30.46;24.07
28428;BME280;15662;49.128;8.520;2023-06-14T11:40:25;100129.34;;;30.56;23.93
28428;BME280;15662;49.128;8.520;2023-06-14T11:43:01;100133.06;;;30.63;23.95
28428;BME280;15662;49.128;8.520;2023-06-14T11:45:30;100136.31;;;30.67;23.83
28428;BME280;15662;49.128;8.520;2023-06-14T11:47:59;100133.41;;;30.68;23.53
28428;BME280;15662;49.128;8.520;2023-06-14T11:50:28;100132.91;;;30.73;23.94
28428;BME280;15662;49.128;8.520;2023-06-14T11:52:59;100126.91;;;30.77;23.74
28428;BME280;15662;49.128;8.520;2023-06-14T11:55:38;100127.44;;;30.81;23.77
28428;BME280;15662;49.128;8.520;2023-06-14T11:58:10;100125.34;;;30.83;23.62
28428;BME280;15662;49.128;8.520;2023-06-14T12:00:38;100122.81;;;30.81;23.59
28428;BME280;15662;49.128;8.520;2023-06-14T12:03:07;100122.63;;;30.83;23.37
28428;BME280;15662;49.128;8.520;2023-06-14T12:05:34;100122.63;;;30.83;23.63
28428;BME280;15662;49.128;8.520;2023-06-14T12:08:06;100120.25;;;30.80;23.55
28428;BME280;15662;49.128;8.520;2023-06-14T12:10:42;100122.47;;;30.85;23.23
28428;BME280;15662;49.128;8.520;2023-06-14T12:13:11;100117.66;;;30.87;23.22
28428;BME280;15662;49.128;8.520;2023-06-14T12:15:38;100121.22;;;30.95;23.08
28428;BME280;15662;49.128;8.520;2023-06-14T12:18:06;100114.53;;;30.98;23.12
28428;BME280;15662;49.128;8.520;2023-06-14T12:20:35;100123.25;;;31.01;22.72
28428;BME280;15662;49.128;8.520;2023-06-14T12:23:04;100112.94;;;31.03;22.70
28428;BME280;15662;49.128;8.520;2023-06-14T12:25:37;100112.59;;;31.06;22.95
28428;BME280;15662;49.128;8.520;2023-06-14T12:28:09;100116.69;;;31.11;22.78
28428;BME280;15662;49.128;8.520;2023-06-14T12:30:38;100120.41;;;31.18;22.55
28428;BME280;15662;49.128;8.520;2023-06-14T12:33:06;100119.53;;;31.25;22.21
28428;BME280;15662;49.128;8.520;2023-06-14T12:35:37;100118.19;;;31.29;22.42
28428;BME280;15662;49.128;8.520;2023-06-14T12:38:05;100118.69;;;31.33;21.77
28428;BME280;15662;49.128;8.520;2023-06-14T12:40:34;100127.56;;;31.35;21.84
28428;BME280;15662;49.128;8.520;2023-06-14T12:43:05;100120.38;;;31.34;21.71
28428;BME280;15662;49.128;8.520;2023-06-14T12:45:33;100118.31;;;31.36;21.86
28428;BME280;15662;49.128;8.520;2023-06-14T12:48:00;100113.19;;;31.33;21.48
28428;BME280;15662;49.128;8.520;2023-06-14T12:50:30;100131.03;;;31.29;21.48
28428;BME280;15662;49.128;8.520;2023-06-14T12:52:58;100129.97;;;31.22;21.60
28428;BME280;15662;49.128;8.520;2023-06-14T12:55:25;100121.66;;;31.15;21.71
28428;BME280;15662;49.128;8.520;2023-06-14T12:57:53;100122.00;;;31.12;21.33
28428;BME280;15662;49.128;8.520;2023-06-14T13:00:23;100114.81;;;31.11;21.27
28428;BME280;15662;49.128;8.520;2023-06-14T13:02:52;100120.94;;;31.13;21.54
28428;BME280;15662;49.128;8.520;2023-06-14T13:05:21;100121.09;;;31.20;21.44
28428;BME280;15662;49.128;8.520;2023-06-14T13:07:49;100111.66;;;31.22;21.41
28428;BME280;15662;49.128;8.520;2023-06-14T13:10:17;100127.75;;;31.25;21.37
28428;BME280;15662;49.128;8.520;2023-06-14T13:12:46;100127.25;;;31.22;21.28
28428;BME280;15662;49.128;8.520;2023-06-14T13:15:13;100123.47;;;31.23;21.03
28428;BME280;15662;49.128;8.520;2023-06-14T13:17:41;100131.69;;;31.23;21.29